createdAt,value
2022-08-26T00:00:24.027Z,1014.47
2022-08-26T00:01:35.839Z,1014.48
2022-08-26T00:02:42.708Z,1014.46
2022-08-26T00:04:20.292Z,1014.55
2022-08-26T00:05:24.335Z,1014.54
2022-08-26T00:06:32.467Z,1014.59
2022-08-26T00:08:13.433Z,1014.58
2022-08-26T00:09:22.587Z,1014.61
2022-08-26T00:10:37.371Z,1014.61
2022-08-26T00:12:37.851Z,1014.56
2022-08-26T00:13:41.416Z,1014.61
2022-08-26T00:14:51.397Z,1014.61
2022-08-26T00:16:27.964Z,1014.62
2022-08-26T00:17:46.029Z,1014.60
2022-08-26T00:19:08.440Z,1014.57
2022-08-26T00:20:48.538Z,1014.58
2022-08-26T00:22:01.535Z,1014.58
2022-08-26T00:23:14.497Z,1014.61
2022-08-26T00:24:59.553Z,1014.59
2022-08-26T00:26:04.447Z,1014.59
2022-08-26T00:27:15.702Z,1014.61
2022-08-26T00:28:58.916Z,1014.55
2022-08-26T00:30:05.540Z,1014.57
2022-08-26T00:31:16.994Z,1014.56
2022-08-26T00:32:57.938Z,1014.59
2022-08-26T00:34:05.294Z,1014.54
2022-08-26T00:35:11.933Z,1014.57
2022-08-26T00:36:52.527Z,1014.55
2022-08-26T00:38:03.223Z,1014.61
2022-08-26T00:39:08.130Z,1014.58
2022-08-26T00:40:51.394Z,1014.61
2022-08-26T00:41:55.974Z,1014.63
2022-08-26T00:43:02.257Z,1014.65
2022-08-26T00:44:47.247Z,1014.62
2022-08-26T00:45:58.554Z,1014.64
2022-08-26T00:47:06.015Z,1014.62
2022-08-26T00:48:51.366Z,1014.63
2022-08-26T00:49:59.622Z,1014.62
2022-08-26T00:51:03.840Z,1014.63
2022-08-26T00:52:44.104Z,1014.63
2022-08-26T00:53:47.940Z,1014.66
2022-08-26T00:54:54.610Z,1014.66
2022-08-26T00:56:41.040Z,1014.62
2022-08-26T00:57:46.698Z,1014.66
2022-08-26T00:58:52.303Z,1014.67
2022-08-26T01:00:23.809Z,1014.65
2022-08-26T01:01:36.540Z,1014.66
2022-08-26T01:02:52.388Z,1014.68
2022-08-26T01:04:31.944Z,1014.68
2022-08-26T01:05:42.488Z,1014.68
2022-08-26T01:06:50.048Z,1014.67
2022-08-26T01:08:30.143Z,1014.71
2022-08-26T01:09:33.806Z,1014.68
2022-08-26T01:10:37.743Z,1014.66
2022-08-26T01:12:16.551Z,1014.65
2022-08-26T01:13:26.980Z,1014.69
2022-08-26T01:14:32.455Z,1014.71
2022-08-26T01:16:12.085Z,1014.67
2022-08-26T01:17:16.586Z,1014.63
2022-08-26T01:18:21.714Z,1014.61
2022-08-26T01:19:58.537Z,1014.66
2022-08-26T01:21:09.262Z,1014.68
2022-08-26T01:22:15.720Z,1014.63
2022-08-26T01:24:03.600Z,1014.64
2022-08-26T01:25:09.588Z,1014.65
2022-08-26T01:26:25.332Z,1014.61
2022-08-26T01:28:03.308Z,1014.62
2022-08-26T01:29:10.591Z,1014.67
2022-08-26T01:30:15.215Z,1014.64
2022-08-26T01:31:53.455Z,1014.71
2022-08-26T01:32:57.541Z,1014.67
2022-08-26T01:34:03.357Z,1014.68
2022-08-26T01:35:39.118Z,1014.65
2022-08-26T01:36:45.968Z,1014.67
2022-08-26T01:37:53.253Z,1014.67
2022-08-26T01:39:30.942Z,1014.64
2022-08-26T01:40:38.378Z,1014.68
2022-08-26T01:41:44.211Z,1014.72
2022-08-26T01:43:29.313Z,1014.73
2022-08-26T01:44:34.865Z,1014.67
2022-08-26T01:45:40.761Z,1014.73
2022-08-26T01:47:20.430Z,1014.76
2022-08-26T01:48:23.895Z,1014.74
2022-08-26T01:49:28.113Z,1014.76
2022-08-26T01:51:23.843Z,1014.79
2022-08-26T01:52:33.287Z,1014.81
2022-08-26T01:53:42.090Z,1014.80
2022-08-26T01:55:43.585Z,1014.79
2022-08-26T01:56:48.099Z,1014.80
2022-08-26T01:57:54.179Z,1014.85
2022-08-26T01:59:33.344Z,1014.82
2022-08-26T02:00:24.626Z,1014.83
2022-08-26T02:01:35.042Z,1014.78
2022-08-26T02:02:39.223Z,1014.79
2022-08-26T02:04:16.040Z,1014.80
2022-08-26T02:05:19.652Z,1014.82
2022-08-26T02:06:25.045Z,1014.79
2022-08-26T02:08:05.651Z,1014.87
2022-08-26T02:09:16.814Z,1014.81
2022-08-26T02:10:31.471Z,1014.84
2022-08-26T02:12:16.087Z,1014.85
2022-08-26T02:13:21.411Z,1014.86
2022-08-26T02:14:26.835Z,1014.88
2022-08-26T02:16:14.360Z,1014.88
2022-08-26T02:17:19.487Z,1014.87
2022-08-26T02:18:28.561Z,1014.89
2022-08-26T02:20:20.721Z,1014.93
2022-08-26T02:21:24.997Z,1014.90
2022-08-26T02:22:38.415Z,1014.90
2022-08-26T02:24:17.649Z,1014.88
2022-08-26T02:25:25.384Z,1014.90
2022-08-26T02:26:32.785Z,1014.92
2022-08-26T02:28:10.272Z,1014.89
2022-08-26T02:29:20.587Z,1014.93
2022-08-26T02:30:29.337Z,1014.90
2022-08-26T02:32:09.089Z,1014.88
2022-08-26T02:33:16.612Z,1014.87
2022-08-26T02:34:22.219Z,1014.89
2022-08-26T02:36:06.739Z,1014.87
2022-08-26T02:37:15.492Z,1014.87
2022-08-26T02:38:22.619Z,1014.86
2022-08-26T02:40:08.919Z,1014.84
2022-08-26T02:41:13.938Z,1014.89
2022-08-26T02:42:20.834Z,1014.90
2022-08-26T02:44:00.830Z,1014.92
2022-08-26T02:45:04.713Z,1014.91
2022-08-26T02:46:27.635Z,1014.92
2022-08-26T02:48:19.079Z,1014.89
2022-08-26T02:49:23.398Z,1014.91
2022-08-26T02:50:30.916Z,1014.86
2022-08-26T02:52:08.993Z,1014.85
2022-08-26T02:53:15.323Z,1014.85
2022-08-26T02:54:25.856Z,1014.85
2022-08-26T02:56:05.730Z,1014.85
2022-08-26T02:57:12.000Z,1014.85
2022-08-26T02:58:17.552Z,1014.85
2022-08-26T02:59:53.580Z,1014.85
2022-08-26T03:00:24.180Z,1014.85
2022-08-26T03:01:40.339Z,1014.85
2022-08-26T03:02:45.181Z,1014.85
2022-08-26T03:04:25.754Z,1014.85
2022-08-26T03:05:48.968Z,1014.85
2022-08-26T03:07:00.984Z,1014.85
2022-08-26T03:08:38.761Z,1014.85
2022-08-26T03:09:45.867Z,1014.85
2022-08-26T03:10:55.313Z,1014.85
2022-08-26T03:12:32.199Z,1014.85
2022-08-26T03:13:39.964Z,1014.85
2022-08-26T03:14:43.967Z,1014.85
2022-08-26T03:16:20.117Z,1014.85
2022-08-26T03:17:41.707Z,1014.85
2022-08-26T03:18:57.819Z,1014.85
2022-08-26T03:20:43.992Z,1014.85
2022-08-26T03:21:48.676Z,1014.85
2022-08-26T03:22:57.348Z,1014.85
2022-08-26T03:24:38.280Z,1014.85
2022-08-26T03:25:44.276Z,1014.85
2022-08-26T03:26:58.746Z,1014.85
2022-08-26T03:28:41.301Z,1014.85
2022-08-26T03:29:49.527Z,1014.85
2022-08-26T03:30:58.258Z,1014.85
2022-08-26T03:32:38.656Z,1014.85
2022-08-26T03:33:45.081Z,1014.85
2022-08-26T03:34:52.741Z,1014.85
2022-08-26T03:36:30.301Z,1014.85
2022-08-26T03:37:34.814Z,1014.85
2022-08-26T03:38:39.024Z,1014.85
2022-08-26T03:40:20.301Z,1014.85
2022-08-26T03:41:27.305Z,1014.85
2022-08-26T03:42:33.275Z,1014.85
2022-08-26T03:44:13.697Z,1014.85
2022-08-26T03:45:17.245Z,1014.85
2022-08-26T03:46:21.618Z,1014.85
2022-08-26T03:48:03.620Z,1014.85
2022-08-26T03:49:07.392Z,1014.85
2022-08-26T03:50:15.555Z,1014.85
2022-08-26T03:52:05.025Z,1014.85
2022-08-26T03:53:12.947Z,1014.85
2022-08-26T03:54:22.969Z,1014.85
2022-08-26T03:56:04.517Z,1014.85
2022-08-26T03:57:08.909Z,1014.85
2022-08-26T03:58:17.044Z,1014.85
2022-08-26T03:59:54.262Z,1014.85
2022-08-26T04:00:25.034Z,1014.85
2022-08-26T04:01:30.566Z,1014.85
2022-08-26T04:02:35.366Z,1014.85
2022-08-26T04:04:22.607Z,1014.85
2022-08-26T04:05:52.371Z,1014.85
2022-08-26T04:06:56.274Z,1014.85
2022-08-26T04:08:01.839Z,1014.85
2022-08-26T04:09:40.905Z,1014.85
2022-08-26T04:10:44.089Z,1014.85
2022-08-26T04:11:53.213Z,1014.85
2022-08-26T04:13:29.157Z,1014.85
2022-08-26T04:14:33.813Z,1014.85
2022-08-26T04:15:39.941Z,1014.85
2022-08-26T04:17:19.761Z,1014.85
2022-08-26T04:18:33.013Z,1014.85
2022-08-26T04:19:44.495Z,1014.85
2022-08-26T04:21:21.164Z,1014.85
2022-08-26T04:22:30.741Z,1014.85
2022-08-26T04:23:34.005Z,1014.85
2022-08-26T04:25:31.999Z,1014.88
2022-08-26T04:26:39.492Z,1014.88
2022-08-26T04:27:46.405Z,1014.88
2022-08-26T04:29:23.291Z,1014.88
2022-08-26T04:30:28.176Z,1014.88
2022-08-26T04:31:36.774Z,1014.88
2022-08-26T04:33:19.024Z,1014.88
2022-08-26T04:34:41.709Z,1014.88
2022-08-26T04:35:49.268Z,1014.88
2022-08-26T04:37:29.420Z,1014.88
2022-08-26T04:38:35.539Z,1014.88
2022-08-26T04:39:39.973Z,1014.88
2022-08-26T04:41:27.193Z,1014.88
2022-08-26T04:42:38.437Z,1014.95
2022-08-26T04:43:43.957Z,1014.95
2022-08-26T04:45:23.186Z,1014.95
2022-08-26T04:46:27.399Z,1014.95
2022-08-26T04:47:38.076Z,1014.95
2022-08-26T04:49:17.134Z,1014.95
2022-08-26T04:50:30.725Z,1014.95
2022-08-26T04:51:35.873Z,1014.95
2022-08-26T04:53:16.296Z,1014.95
2022-08-26T04:54:22.137Z,1014.95
2022-08-26T04:55:45.198Z,1014.95
2022-08-26T04:57:26.766Z,1014.95
2022-08-26T04:58:30.944Z,1014.95
2022-08-26T04:59:39.105Z,1014.95
2022-08-26T05:00:23.790Z,1014.95
2022-08-26T05:01:29.673Z,1014.95
2022-08-26T05:02:38.449Z,1014.95
2022-08-26T05:04:22.193Z,1014.95
2022-08-26T05:05:29.267Z,1014.95
2022-08-26T05:06:37.072Z,1014.95
2022-08-26T05:08:22.432Z,1014.95
2022-08-26T05:09:27.103Z,1014.95
2022-08-26T05:10:32.363Z,1014.95
2022-08-26T05:12:09.153Z,1014.95
2022-08-26T05:13:17.825Z,1014.95
2022-08-26T05:14:25.838Z,1014.95
2022-08-26T05:16:07.164Z,1014.95
2022-08-26T05:17:10.800Z,1014.95
2022-08-26T05:18:19.972Z,1014.95
2022-08-26T05:19:55.607Z,1014.95
2022-08-26T05:21:00.499Z,1014.95
2022-08-26T05:22:03.479Z,1014.95
2022-08-26T05:23:43.205Z,1014.95
2022-08-26T05:24:46.958Z,1014.95
2022-08-26T05:25:53.637Z,1014.95
2022-08-26T05:27:38.583Z,1015.08
2022-08-26T05:28:42.372Z,1015.08
2022-08-26T05:29:46.904Z,1015.08
2022-08-26T05:31:32.254Z,1015.08
2022-08-26T05:32:36.908Z,1015.08
2022-08-26T05:33:43.073Z,1015.08
2022-08-26T05:35:29.855Z,1015.10
2022-08-26T05:36:39.575Z,1015.10
2022-08-26T05:37:42.797Z,1015.10
2022-08-26T05:39:22.666Z,1015.10
2022-08-26T05:40:31.842Z,1015.10
2022-08-26T05:41:45.876Z,1015.10
2022-08-26T05:43:22.728Z,1015.10
2022-08-26T05:44:29.228Z,1015.10
2022-08-26T05:45:57.928Z,1015.10
2022-08-26T05:47:38.078Z,1015.10
2022-08-26T05:48:49.950Z,1015.10
2022-08-26T05:50:02.893Z,1015.10
2022-08-26T05:51:42.103Z,1015.10
2022-08-26T05:52:45.565Z,1015.10
2022-08-26T05:54:00.666Z,1015.10
2022-08-26T05:55:41.031Z,1015.10
2022-08-26T05:56:44.677Z,1015.10
2022-08-26T05:57:54.155Z,1015.10
2022-08-26T05:59:41.486Z,1015.10
2022-08-26T06:00:23.247Z,1015.10
2022-08-26T06:01:30.446Z,1015.10
2022-08-26T06:02:37.884Z,1015.10
2022-08-26T06:04:18.030Z,1015.10
2022-08-26T06:05:28.848Z,1015.10
2022-08-26T06:06:40.020Z,1015.10
2022-08-26T06:08:19.301Z,1015.10
2022-08-26T06:09:23.930Z,1015.10
2022-08-26T06:10:44.190Z,1015.47
2022-08-26T06:12:26.349Z,1015.47
2022-08-26T06:13:32.084Z,1015.47
2022-08-26T06:14:36.433Z,1015.47
2022-08-26T06:16:14.032Z,1015.47
2022-08-26T06:17:20.757Z,1015.47
2022-08-26T06:18:26.734Z,1015.47
2022-08-26T06:20:08.697Z,1015.47
2022-08-26T06:21:13.971Z,1015.47
2022-08-26T06:22:22.324Z,1015.47
2022-08-26T06:23:59.770Z,1015.47
2022-08-26T06:25:05.616Z,1015.47
2022-08-26T06:26:08.953Z,1015.47
2022-08-26T06:27:49.276Z,1015.47
2022-08-26T06:28:57.731Z,1015.47
2022-08-26T06:30:11.955Z,1015.47
2022-08-26T06:31:51.243Z,1015.47
2022-08-26T06:32:55.057Z,1015.47
2022-08-26T06:34:00.104Z,1015.47
2022-08-26T06:35:40.339Z,1015.47
2022-08-26T06:36:49.958Z,1015.47
2022-08-26T06:37:58.514Z,1015.47
2022-08-26T06:39:41.063Z,1015.47
2022-08-26T06:40:50.056Z,1015.47
2022-08-26T06:41:55.845Z,1015.47
2022-08-26T06:43:32.418Z,1015.47
2022-08-26T06:44:38.068Z,1015.47
2022-08-26T06:45:44.613Z,1015.47
2022-08-26T06:47:23.932Z,1015.47
2022-08-26T06:48:28.273Z,1015.47
2022-08-26T06:49:39.842Z,1015.47
2022-08-26T06:51:16.745Z,1015.77
2022-08-26T06:52:26.842Z,1015.77
2022-08-26T06:53:30.076Z,1015.77
2022-08-26T06:55:07.779Z,1015.77
2022-08-26T06:56:14.905Z,1015.77
2022-08-26T06:57:22.423Z,1015.77
2022-08-26T06:59:07.613Z,1015.77
2022-08-26T07:00:25.925Z,1015.77
2022-08-26T07:01:34.487Z,1015.77
2022-08-26T07:02:46.903Z,1015.77
2022-08-26T07:04:34.465Z,1015.77
2022-08-26T07:05:42.959Z,1015.77
2022-08-26T07:06:52.822Z,1015.77
2022-08-26T07:08:29.232Z,1015.77
2022-08-26T07:09:34.530Z,1015.77
2022-08-26T07:10:39.589Z,1015.77
2022-08-26T07:12:22.720Z,1015.77
2022-08-26T07:13:42.439Z,1015.77
2022-08-26T07:14:53.140Z,1015.77
2022-08-26T07:16:33.097Z,1015.77
2022-08-26T07:17:36.564Z,1015.77
2022-08-26T07:18:42.130Z,1015.77
2022-08-26T07:20:30.611Z,1015.77
2022-08-26T07:21:35.666Z,1015.77
2022-08-26T07:22:41.842Z,1015.77
2022-08-26T07:24:23.024Z,1015.77
2022-08-26T07:25:30.924Z,1015.77
2022-08-26T07:26:36.387Z,1015.77
2022-08-26T07:28:16.378Z,1015.77
2022-08-26T07:29:19.439Z,1015.77
2022-08-26T07:30:26.118Z,1015.77
2022-08-26T07:32:07.618Z,1015.77
2022-08-26T07:33:10.665Z,1015.77
2022-08-26T07:34:15.332Z,1015.77
2022-08-26T07:35:51.901Z,1015.77
2022-08-26T07:36:57.369Z,1015.77
2022-08-26T07:38:08.997Z,1015.77
2022-08-26T07:39:46.443Z,1015.77
2022-08-26T07:40:50.984Z,1015.77
2022-08-26T07:41:54.673Z,1015.77
2022-08-26T07:43:35.318Z,1015.77
2022-08-26T07:44:39.263Z,1015.77
2022-08-26T07:45:44.408Z,1015.77
2022-08-26T07:47:37.561Z,1015.77
2022-08-26T07:48:46.187Z,1015.77
2022-08-26T07:49:52.708Z,1015.77
2022-08-26T07:51:48.763Z,1015.77
2022-08-26T07:52:52.084Z,1015.77
2022-08-26T07:54:03.601Z,1015.77
2022-08-26T07:55:46.302Z,1015.77
2022-08-26T07:56:50.942Z,1015.77
2022-08-26T07:58:00.425Z,1015.77
2022-08-26T07:59:42.056Z,1015.77
2022-08-26T08:01:30.801Z,1015.77
2022-08-26T08:02:37.646Z,1016.24
2022-08-26T08:03:43.911Z,1016.26
2022-08-26T08:05:27.273Z,1016.31
2022-08-26T08:06:39.928Z,1016.31
2022-08-26T08:08:27.343Z,1016.31
2022-08-26T08:10:15.472Z,1016.34
2022-08-26T08:11:23.553Z,1016.35
2022-08-26T08:12:30.547Z,1016.32
2022-08-26T08:14:14.057Z,1016.33
2022-08-26T08:15:20.453Z,1016.32
2022-08-26T08:16:25.235Z,1016.33
2022-08-26T08:18:21.407Z,1016.40
2022-08-26T08:19:36.343Z,1016.39
2022-08-26T08:20:44.663Z,1016.41
2022-08-26T08:22:49.012Z,1016.41
2022-08-26T08:23:53.268Z,1016.40
2022-08-26T08:25:01.148Z,1016.39
2022-08-26T08:26:42.855Z,1016.41
2022-08-26T08:27:48.588Z,1016.41
2022-08-26T08:29:00.300Z,1016.43
2022-08-26T08:30:36.083Z,1016.43
2022-08-26T08:32:11.640Z,1016.45
2022-08-26T08:33:18.861Z,1016.47
2022-08-26T08:34:54.415Z,1016.49
2022-08-26T08:36:03.743Z,1016.51
2022-08-26T08:37:22.686Z,1016.56
2022-08-26T08:39:04.223Z,1016.52
2022-08-26T08:40:10.403Z,1016.50
2022-08-26T08:41:17.078Z,1016.53
2022-08-26T08:42:58.440Z,1016.52
2022-08-26T08:44:02.910Z,1016.52
2022-08-26T08:45:09.680Z,1016.51
2022-08-26T08:46:50.716Z,1016.49
2022-08-26T08:47:56.081Z,1016.50
2022-08-26T08:49:00.550Z,1016.48
2022-08-26T08:50:38.331Z,1016.44
2022-08-26T08:51:45.502Z,1016.43
2022-08-26T08:52:50.557Z,1016.44
2022-08-26T08:54:33.676Z,1016.45
2022-08-26T08:55:42.174Z,1016.46
2022-08-26T08:56:46.489Z,1016.43
2022-08-26T08:58:25.401Z,1016.41
2022-08-26T08:59:29.342Z,1016.42
2022-08-26T09:00:30.059Z,1016.40
2022-08-26T09:01:41.104Z,1016.41
2022-08-26T09:02:53.577Z,1016.38
2022-08-26T09:04:31.961Z,1016.42
2022-08-26T09:05:39.792Z,1016.41
2022-08-26T09:06:52.798Z,1016.42
2022-08-26T09:08:34.832Z,1016.40
2022-08-26T09:09:42.153Z,1016.42
2022-08-26T09:10:48.428Z,1016.40
2022-08-26T09:12:29.812Z,1016.38
2022-08-26T09:13:38.742Z,1016.41
2022-08-26T09:14:46.832Z,1016.39
2022-08-26T09:16:31.750Z,1016.45
2022-08-26T09:17:36.075Z,1016.42
2022-08-26T09:18:42.325Z,1016.43
2022-08-26T09:20:22.307Z,1016.43
2022-08-26T09:21:25.778Z,1016.45
2022-08-26T09:22:30.726Z,1016.46
2022-08-26T09:24:14.817Z,1016.44
2022-08-26T09:25:37.035Z,1016.45
2022-08-26T09:26:45.399Z,1016.43
2022-08-26T09:28:24.765Z,1016.40
2022-08-26T09:29:28.434Z,1016.40
2022-08-26T09:30:39.311Z,1016.40
2022-08-26T09:32:16.689Z,1016.37
2022-08-26T09:33:23.187Z,1016.36
2022-08-26T09:34:29.625Z,1016.40
2022-08-26T09:36:07.452Z,1016.40
2022-08-26T09:37:15.908Z,1016.44
2022-08-26T09:38:24.165Z,1016.39
2022-08-26T09:40:04.250Z,1016.41
2022-08-26T09:41:10.997Z,1016.42
2022-08-26T09:42:20.065Z,1016.42
2022-08-26T09:43:58.619Z,1016.49
2022-08-26T09:45:08.485Z,1016.48
2022-08-26T09:46:18.091Z,1016.50
2022-08-26T09:47:57.522Z,1016.49
2022-08-26T09:49:10.561Z,1016.49
2022-08-26T09:50:24.211Z,1016.46
2022-08-26T09:52:09.120Z,1016.45
2022-08-26T09:53:21.011Z,1016.45
2022-08-26T09:54:38.105Z,1016.42
2022-08-26T09:56:17.887Z,1016.46
2022-08-26T09:57:22.736Z,1016.46
2022-08-26T09:58:26.627Z,1016.46
2022-08-26T10:00:25.682Z,1016.45
2022-08-26T10:01:31.485Z,1016.49
2022-08-26T10:02:39.305Z,1016.43
2022-08-26T10:04:23.887Z,1016.46
2022-08-26T10:05:27.852Z,1016.46
2022-08-26T10:06:33.617Z,1016.46
2022-08-26T10:08:11.060Z,1016.47
2022-08-26T10:09:21.086Z,1016.48
2022-08-26T10:10:25.689Z,1016.50
2022-08-26T10:12:06.446Z,1016.54
2022-08-26T10:13:10.600Z,1016.54
2022-08-26T10:14:16.036Z,1016.56
2022-08-26T10:15:59.950Z,1016.57
2022-08-26T10:17:12.879Z,1016.56
2022-08-26T10:18:17.348Z,1016.48
2022-08-26T10:20:22.918Z,1016.54
2022-08-26T10:21:31.493Z,1016.55
2022-08-26T10:22:39.482Z,1016.56
2022-08-26T10:24:17.250Z,1016.57
2022-08-26T10:25:21.840Z,1016.54
2022-08-26T10:26:27.860Z,1016.54
2022-08-26T10:28:05.778Z,1016.56
2022-08-26T10:29:10.573Z,1016.55
2022-08-26T10:30:15.543Z,1016.53
2022-08-26T10:31:53.693Z,1016.55
2022-08-26T10:33:06.117Z,1016.57
2022-08-26T10:34:12.476Z,1016.54
2022-08-26T10:35:55.840Z,1016.53
2022-08-26T10:37:27.345Z,1016.50
2022-08-26T10:38:34.432Z,1016.52
2022-08-26T10:40:25.375Z,1016.57
2022-08-26T10:41:29.639Z,1016.55
2022-08-26T10:42:34.755Z,1016.55
2022-08-26T10:44:12.155Z,1016.54
2022-08-26T10:45:20.896Z,1016.54
2022-08-26T10:46:27.090Z,1016.56
2022-08-26T10:48:06.696Z,1016.59
2022-08-26T10:49:12.833Z,1016.53
2022-08-26T10:50:18.848Z,1016.54
2022-08-26T10:51:58.822Z,1016.52
2022-08-26T10:53:16.369Z,1016.52
2022-08-26T10:54:30.639Z,1016.48
2022-08-26T10:56:06.964Z,1016.52
2022-08-26T10:57:22.410Z,1016.48
2022-08-26T10:58:40.342Z,1016.52
2022-08-26T11:00:24.257Z,1016.51
2022-08-26T11:01:40.858Z,1016.52
2022-08-26T11:02:53.363Z,1016.56
2022-08-26T11:04:54.412Z,1016.61
2022-08-26T11:05:59.114Z,1016.60
2022-08-26T11:07:04.441Z,1016.57
2022-08-26T11:08:44.761Z,1016.65
2022-08-26T11:09:49.906Z,1016.60
2022-08-26T11:10:54.750Z,1016.56
2022-08-26T11:12:38.959Z,1016.59
2022-08-26T11:13:52.930Z,1016.56
2022-08-26T11:15:11.039Z,1016.60
2022-08-26T11:16:59.291Z,1016.56
2022-08-26T11:18:06.971Z,1016.57
2022-08-26T11:19:11.627Z,1016.60
2022-08-26T11:21:21.658Z,1016.63
2022-08-26T11:22:31.467Z,1016.60
2022-08-26T11:23:41.646Z,1016.58
2022-08-26T11:25:35.975Z,1016.64
2022-08-26T11:27:02.358Z,1016.64
2022-08-26T11:28:08.515Z,1016.60
2022-08-26T11:29:49.839Z,1016.64
2022-08-26T11:31:02.721Z,1016.63
2022-08-26T11:32:08.697Z,1016.57
2022-08-26T11:33:46.516Z,1016.64
2022-08-26T11:34:52.239Z,1016.58
2022-08-26T11:35:57.928Z,1016.58
2022-08-26T11:37:47.049Z,1016.59
2022-08-26T11:38:51.938Z,1016.56
2022-08-26T11:40:08.617Z,1016.60
2022-08-26T11:41:45.488Z,1016.62
2022-08-26T11:42:54.062Z,1016.65
2022-08-26T11:43:58.083Z,1016.63
2022-08-26T11:45:44.741Z,1016.58
2022-08-26T11:46:48.805Z,1016.61
2022-08-26T11:47:58.872Z,1016.52
2022-08-26T11:49:34.614Z,1016.58
2022-08-26T11:50:40.512Z,1016.58
2022-08-26T11:51:50.971Z,1016.55
2022-08-26T11:53:31.774Z,1016.56
2022-08-26T11:54:47.083Z,1016.60
2022-08-26T11:55:52.911Z,1016.59
2022-08-26T11:57:34.381Z,1016.58
2022-08-26T11:58:40.505Z,1016.54
2022-08-26T11:59:47.519Z,1016.53
2022-08-26T12:00:33.442Z,1016.52
2022-08-26T12:01:43.405Z,1016.49
2022-08-26T12:02:46.829Z,1016.49
2022-08-26T12:04:25.094Z,1016.49
2022-08-26T12:05:31.227Z,1016.49
2022-08-26T12:06:42.028Z,1016.49
2022-08-26T12:09:36.403Z,1016.49
2022-08-26T12:10:40.995Z,1016.50
2022-08-26T12:11:45.692Z,1016.55
2022-08-26T12:13:28.095Z,1016.53
2022-08-26T12:14:33.713Z,1016.52
2022-08-26T12:15:41.266Z,1016.56
2022-08-26T12:17:22.732Z,1016.52
2022-08-26T12:18:35.848Z,1016.55
2022-08-26T12:19:44.585Z,1016.53
2022-08-26T12:21:21.724Z,1016.55
2022-08-26T12:22:32.743Z,1016.59
2022-08-26T12:23:42.210Z,1016.58
2022-08-26T12:25:24.281Z,1016.57
2022-08-26T12:26:35.445Z,1016.58
2022-08-26T12:27:39.933Z,1016.57
2022-08-26T12:29:38.807Z,1016.53
2022-08-26T12:30:47.978Z,1016.54
2022-08-26T12:31:54.115Z,1016.56
2022-08-26T12:34:17.367Z,1016.54
2022-08-26T12:35:22.650Z,1016.53
2022-08-26T12:36:28.536Z,1016.48
2022-08-26T12:38:06.805Z,1016.49
2022-08-26T12:39:10.504Z,1016.45
2022-08-26T12:40:15.013Z,1016.47
2022-08-26T12:41:50.493Z,1016.48
2022-08-26T12:42:53.820Z,1016.42
2022-08-26T12:43:57.392Z,1016.45
2022-08-26T12:45:41.242Z,1016.50
2022-08-26T12:46:49.218Z,1016.48
2022-08-26T12:47:55.386Z,1016.45
2022-08-26T12:49:30.809Z,1016.54
2022-08-26T12:50:34.273Z,1016.49
2022-08-26T12:51:37.856Z,1016.54
2022-08-26T12:53:14.097Z,1016.56
2022-08-26T12:54:17.438Z,1016.59
2022-08-26T12:55:22.853Z,1016.58
2022-08-26T12:56:58.129Z,1016.61
2022-08-26T12:58:01.285Z,1016.59
2022-08-26T12:59:05.114Z,1016.53
2022-08-26T13:00:28.469Z,1016.57
2022-08-26T13:01:33.117Z,1016.55
2022-08-26T13:02:37.417Z,1016.55
2022-08-26T13:04:15.684Z,1016.55
2022-08-26T13:05:19.134Z,1016.56
2022-08-26T13:06:27.763Z,1016.57
2022-08-26T13:08:03.245Z,1016.59
2022-08-26T13:09:06.764Z,1016.60
2022-08-26T13:10:09.938Z,1016.55
2022-08-26T13:11:49.386Z,1016.61
2022-08-26T13:12:54.425Z,1016.57
2022-08-26T13:13:59.357Z,1016.59
2022-08-26T13:15:48.199Z,1016.55
2022-08-26T13:16:51.885Z,1016.58
2022-08-26T13:17:55.175Z,1016.55
2022-08-26T13:19:33.689Z,1016.52
2022-08-26T13:20:37.032Z,1016.50
2022-08-26T13:21:43.707Z,1016.49
2022-08-26T13:23:19.894Z,1016.47
2022-08-26T13:24:28.778Z,1016.52
2022-08-26T13:25:32.414Z,1016.54
2022-08-26T13:27:08.258Z,1016.52
2022-08-26T13:28:11.576Z,1016.54
2022-08-26T13:29:19.778Z,1016.56
2022-08-26T13:30:59.227Z,1016.53
2022-08-26T13:32:04.495Z,1016.56
2022-08-26T13:33:12.386Z,1016.53
2022-08-26T13:34:56.820Z,1016.52
2022-08-26T13:36:03.536Z,1016.53
2022-08-26T13:37:06.835Z,1016.52
2022-08-26T13:38:59.563Z,1016.47
2022-08-26T13:40:03.301Z,1016.48
2022-08-26T13:41:07.240Z,1016.47
2022-08-26T13:43:01.535Z,1016.43
2022-08-26T13:44:05.459Z,1016.43
2022-08-26T13:45:08.913Z,1016.47
2022-08-26T13:47:48.258Z,1016.49
2022-08-26T13:48:56.049Z,1016.44
2022-08-26T13:50:31.495Z,1016.53
2022-08-26T13:51:34.904Z,1016.53
2022-08-26T13:52:42.523Z,1016.54
2022-08-26T13:54:17.958Z,1016.53
2022-08-26T13:55:21.363Z,1016.49
2022-08-26T13:56:24.770Z,1016.50
2022-08-26T13:58:00.223Z,1016.55
2022-08-26T13:59:03.617Z,1016.55
2022-08-26T14:00:24.927Z,1016.52
2022-08-26T14:01:28.656Z,1016.50
2022-08-26T14:02:32.062Z,1016.51
2022-08-26T14:04:11.311Z,1016.54
2022-08-26T14:05:25.011Z,1016.45
2022-08-26T14:06:28.666Z,1016.45
2022-08-26T14:08:06.350Z,1016.48
2022-08-26T14:09:11.538Z,1016.46
2022-08-26T14:10:15.118Z,1016.49
2022-08-26T14:12:08.453Z,1016.56
2022-08-26T14:13:13.369Z,1016.50
2022-08-26T14:14:16.883Z,1016.52
2022-08-26T14:15:52.416Z,1016.51
2022-08-26T14:17:11.808Z,1016.48
2022-08-26T14:18:22.487Z,1016.54
2022-08-26T14:20:16.296Z,1016.51
2022-08-26T14:21:19.682Z,1016.52
2022-08-26T14:22:23.049Z,1016.53
2022-08-26T14:24:22.795Z,1016.58
2022-08-26T14:25:26.241Z,1016.55
2022-08-26T14:26:41.015Z,1016.56
2022-08-26T14:28:16.583Z,1016.57
2022-08-26T14:29:23.791Z,1016.53
2022-08-26T14:30:27.226Z,1016.51
2022-08-26T14:32:02.890Z,1016.52
2022-08-26T14:33:09.045Z,1016.49
2022-08-26T14:34:12.524Z,1016.49
2022-08-26T14:35:54.731Z,1016.45
2022-08-26T14:36:58.169Z,1016.46
2022-08-26T14:38:13.392Z,1016.49
2022-08-26T14:39:49.067Z,1016.40
2022-08-26T14:40:52.861Z,1016.47
2022-08-26T14:42:00.596Z,1016.45
2022-08-26T14:43:50.920Z,1016.50
2022-08-26T14:44:54.224Z,1016.53
2022-08-26T14:45:57.474Z,1016.49
2022-08-26T14:47:33.579Z,1016.49
2022-08-26T14:48:39.558Z,1016.49
2022-08-26T14:49:48.894Z,1016.51
2022-08-26T14:51:24.478Z,1016.54
2022-08-26T14:52:27.823Z,1016.54
2022-08-26T14:53:31.183Z,1016.58
2022-08-26T14:55:07.001Z,1016.59
2022-08-26T14:56:14.933Z,1016.60
2022-08-26T14:57:20.859Z,1016.59
2022-08-26T14:58:57.064Z,1016.65
2022-08-26T15:00:23.636Z,1016.55
2022-08-26T15:01:30.838Z,1016.58
2022-08-26T15:02:45.657Z,1016.56
2022-08-26T15:04:22.338Z,1016.57
2022-08-26T15:05:25.761Z,1016.58
2022-08-26T15:06:33.648Z,1016.52
2022-08-26T15:08:11.117Z,1016.48
2022-08-26T15:09:14.570Z,1016.50
2022-08-26T15:10:17.979Z,1016.47
2022-08-26T15:11:53.809Z,1016.51
2022-08-26T15:12:57.382Z,1016.47
2022-08-26T15:14:00.734Z,1016.50
2022-08-26T15:15:46.103Z,1016.53
2022-08-26T15:16:49.694Z,1016.57
2022-08-26T15:17:55.118Z,1016.54
2022-08-26T15:19:30.648Z,1016.57
2022-08-26T15:20:34.181Z,1016.55
2022-08-26T15:21:37.568Z,1016.56
2022-08-26T15:23:18.073Z,1016.58
2022-08-26T15:24:22.155Z,1016.54
2022-08-26T15:25:25.426Z,1016.58
2022-08-26T15:27:00.925Z,1016.55
2022-08-26T15:28:04.469Z,1016.57
2022-08-26T15:29:13.298Z,1016.55
2022-08-26T15:30:53.789Z,1016.59
2022-08-26T15:32:00.946Z,1016.60
2022-08-26T15:33:04.225Z,1016.60
2022-08-26T15:34:45.263Z,1016.60
2022-08-26T15:35:55.220Z,1016.64
2022-08-26T15:36:58.716Z,1016.67
2022-08-26T15:38:34.422Z,1016.65
2022-08-26T15:39:37.780Z,1016.59
2022-08-26T15:40:41.558Z,1016.61
2022-08-26T15:42:21.762Z,1016.59
2022-08-26T15:43:39.735Z,1016.54
2022-08-26T15:44:43.149Z,1016.52
2022-08-26T15:46:24.224Z,1016.48
2022-08-26T15:47:29.687Z,1016.51
2022-08-26T15:49:02.526Z,1016.53
2022-08-26T15:50:46.683Z,1016.50
2022-08-26T15:51:57.695Z,1016.50
2022-08-26T15:53:03.194Z,1016.42
2022-08-26T15:54:38.536Z,1016.40